createdAt,value
2019-01-17T00:01:46.369Z,5.60
2019-01-17T00:04:30.813Z,5.30
2019-01-17T00:07:04.475Z,5.07
2019-01-17T00:09:32.393Z,4.80
2019-01-17T00:12:00.295Z,4.40
2019-01-17T00:14:28.219Z,4.30
2019-01-17T00:16:58.645Z,3.87
2019-01-17T00:19:32.069Z,3.80
2019-01-17T00:22:02.976Z,3.73
2019-01-17T00:24:39.807Z,3.40
2019-01-17T00:27:23.961Z,3.60
2019-01-17T00:29:51.902Z,3.73
2019-01-17T00:32:31.989Z,3.20
2019-01-17T00:35:02.645Z,3.50
2019-01-17T00:37:45.225Z,3.27
2019-01-17T00:40:15.986Z,3.47
2019-01-17T00:42:43.886Z,3.17
2019-01-17T00:45:11.896Z,2.83
2019-01-17T00:47:56.212Z,3.30
2019-01-17T00:50:38.997Z,3.53
2019-01-17T00:53:09.690Z,3.17
2019-01-17T00:55:46.585Z,3.07
2019-01-17T00:58:30.611Z,3.23
2019-01-17T01:01:07.394Z,3.03
2019-01-17T01:03:41.746Z,3.63
2019-01-17T01:06:12.159Z,3.17
2019-01-17T01:08:56.240Z,3.60
2019-01-17T01:11:33.163Z,3.47
2019-01-17T01:14:17.654Z,3.47
2019-01-17T01:16:51.755Z,2.93
2019-01-17T01:19:28.423Z,3.57
2019-01-17T01:22:12.775Z,3.47
2019-01-17T01:24:40.685Z,3.23
2019-01-17T01:27:14.090Z,3.20
2019-01-17T01:29:58.417Z,3.70
2019-01-17T01:32:32.201Z,3.07
2019-01-17T01:35:00.201Z,2.70
2019-01-17T01:37:30.933Z,3.13
2019-01-17T01:40:01.838Z,3.43
2019-01-17T01:42:29.753Z,3.37
2019-01-17T01:44:57.661Z,3.07
2019-01-17T01:47:42.034Z,3.43
2019-01-17T01:50:19.153Z,3.13
2019-01-17T01:52:49.877Z,3.10
2019-01-17T01:55:15.926Z,3.30
2019-01-17T01:57:41.997Z,3.27
2019-01-17T02:00:10.235Z,3.63
2019-01-17T02:02:36.493Z,2.87
2019-01-17T02:05:03.628Z,3.33
2019-01-17T02:07:29.641Z,3.20
2019-01-17T02:09:55.890Z,3.47
2019-01-17T02:12:21.893Z,3.07
2019-01-17T02:14:47.930Z,2.90
2019-01-17T02:17:14.235Z,3.07
2019-01-17T02:19:40.245Z,3.13
2019-01-17T02:22:06.272Z,3.10
2019-01-17T02:24:32.303Z,3.30
2019-01-17T02:26:58.311Z,3.50
2019-01-17T02:29:24.566Z,2.73
2019-01-17T02:31:50.575Z,3.23
2019-01-17T02:34:16.799Z,3.27
2019-01-17T02:36:42.825Z,3.43
2019-01-17T02:39:09.046Z,3.70
2019-01-17T02:41:35.156Z,3.50
2019-01-17T02:44:01.382Z,3.70
2019-01-17T02:46:27.395Z,3.50
2019-01-17T02:48:53.405Z,3.27
2019-01-17T02:51:19.525Z,2.80
2019-01-17T02:53:45.517Z,2.57
2019-01-17T02:56:11.527Z,2.30
2019-01-17T02:58:37.534Z,2.33
2019-01-17T03:01:03.762Z,2.67
2019-01-17T03:03:29.757Z,3.03
2019-01-17T03:05:55.775Z,2.67
2019-01-17T03:08:21.771Z,2.57
2019-01-17T03:10:47.797Z,2.27
2019-01-17T03:13:14.029Z,2.77
2019-01-17T03:15:40.070Z,2.93
2019-01-17T03:18:06.190Z,2.93
2019-01-17T03:20:32.189Z,3.20
2019-01-17T03:22:58.215Z,3.03
2019-01-17T03:25:24.215Z,3.30
2019-01-17T03:27:50.229Z,3.10
2019-01-17T03:30:16.530Z,3.00
2019-01-17T03:32:42.569Z,3.00
2019-01-17T03:35:08.942Z,3.20
2019-01-17T03:37:34.941Z,2.70
2019-01-17T03:40:01.050Z,2.60
2019-01-17T03:42:27.272Z,3.40
2019-01-17T03:44:53.316Z,2.90
2019-01-17T03:47:19.609Z,3.10
2019-01-17T03:49:45.923Z,3.03
2019-01-17T03:52:11.959Z,2.93
2019-01-17T03:54:37.957Z,2.97
2019-01-17T03:57:03.965Z,3.57
2019-01-17T03:59:29.973Z,3.63
2019-01-17T04:01:55.977Z,2.47
2019-01-17T04:04:21.977Z,2.90
2019-01-17T04:06:47.992Z,2.73
2019-01-17T04:09:13.990Z,2.50
2019-01-17T04:11:40.234Z,2.73
2019-01-17T04:14:06.241Z,2.90
2019-01-17T04:16:32.248Z,2.83
2019-01-17T04:18:58.266Z,3.23
2019-01-17T04:21:24.269Z,3.03
2019-01-17T04:23:50.279Z,3.20
2019-01-17T04:26:16.290Z,3.20
2019-01-17T04:28:42.293Z,3.30
2019-01-17T04:31:08.294Z,2.77
2019-01-17T04:33:34.309Z,2.70
2019-01-17T04:36:00.306Z,3.40
2019-01-17T04:38:26.334Z,3.13
2019-01-17T04:40:52.349Z,3.07
2019-01-17T04:43:18.365Z,3.20
2019-01-17T04:45:44.353Z,3.27
2019-01-17T04:48:10.354Z,3.23
2019-01-17T04:50:36.370Z,3.23
2019-01-17T04:53:02.473Z,3.40
2019-01-17T04:55:28.524Z,3.00
2019-01-17T04:57:54.598Z,3.50
2019-01-17T05:00:20.837Z,3.30
2019-01-17T05:02:47.400Z,3.50
2019-01-17T05:05:13.763Z,2.90
2019-01-17T05:07:39.984Z,2.73
2019-01-17T05:10:08.681Z,3.10
2019-01-17T05:12:34.695Z,2.97
2019-01-17T05:15:00.920Z,3.17
2019-01-17T05:17:26.955Z,3.30
2019-01-17T05:19:52.955Z,3.57
2019-01-17T05:22:18.982Z,3.60
2019-01-17T05:24:44.977Z,3.17
2019-01-17T05:27:10.981Z,2.80
2019-01-17T05:29:37.010Z,3.03
2019-01-17T05:32:03.190Z,2.90
2019-01-17T05:34:29.217Z,3.07
2019-01-17T05:36:55.493Z,3.53
2019-01-17T05:39:21.493Z,2.90
2019-01-17T05:41:47.503Z,3.60
2019-01-17T05:44:13.504Z,3.30
2019-01-17T05:46:39.514Z,3.60
2019-01-17T05:49:05.513Z,2.53
2019-01-17T05:51:31.524Z,3.20
2019-01-17T05:53:57.529Z,4.13
2019-01-17T05:56:23.541Z,2.87
2019-01-17T05:58:49.569Z,3.27
2019-01-17T06:01:15.590Z,2.90
2019-01-17T06:03:41.845Z,3.60
2019-01-17T06:06:07.858Z,2.80
2019-01-17T06:08:33.861Z,3.00
2019-01-17T06:10:59.878Z,2.87
2019-01-17T06:13:26.111Z,3.30
2019-01-17T06:15:52.321Z,3.10
2019-01-17T06:18:18.330Z,3.97
2019-01-17T06:20:44.346Z,4.03
2019-01-17T06:23:10.346Z,3.30
2019-01-17T06:25:36.358Z,3.50
2019-01-17T06:28:02.561Z,3.40
2019-01-17T06:30:28.808Z,2.90
2019-01-17T06:32:55.047Z,3.53
2019-01-17T06:35:21.275Z,4.00
2019-01-17T06:37:47.289Z,3.37
2019-01-17T06:40:19.549Z,3.70
2019-01-17T06:42:45.658Z,3.70
2019-01-17T06:45:11.654Z,3.63
2019-01-17T06:47:37.880Z,3.80
2019-01-17T06:50:07.681Z,3.50
2019-01-17T06:52:33.700Z,3.80
2019-01-17T06:54:59.933Z,3.20
2019-01-17T06:57:26.177Z,3.53
2019-01-17T06:59:52.405Z,3.43
2019-01-17T07:02:18.455Z,3.50
2019-01-17T07:04:44.529Z,3.47
2019-01-17T07:07:10.555Z,3.70
2019-01-17T07:09:36.782Z,4.30
2019-01-17T07:12:02.877Z,3.30
2019-01-17T07:14:28.897Z,3.90
2019-01-17T07:16:54.896Z,3.40
2019-01-17T07:19:21.146Z,3.33
2019-01-17T07:21:47.254Z,3.27
2019-01-17T07:24:13.501Z,3.60
2019-01-17T07:26:39.512Z,3.33
2019-01-17T07:29:05.541Z,3.80
2019-01-17T07:31:31.540Z,3.10
2019-01-17T07:33:57.778Z,4.20
2019-01-17T07:36:23.785Z,3.70
2019-01-17T07:38:49.788Z,4.00
2019-01-17T07:41:15.918Z,3.93
2019-01-17T07:43:41.910Z,3.97
2019-01-17T07:46:07.934Z,4.00
2019-01-17T07:48:33.949Z,3.30
2019-01-17T07:50:59.974Z,4.03
2019-01-17T07:53:26.069Z,3.90
2019-01-17T07:55:52.064Z,3.80
2019-01-17T07:58:18.081Z,2.77
2019-01-17T08:00:44.081Z,3.20
2019-01-17T08:03:10.102Z,2.67
2019-01-17T08:05:36.146Z,3.50
2019-01-17T08:08:02.168Z,2.77
2019-01-17T08:10:28.173Z,3.27
2019-01-17T08:12:54.189Z,3.07
2019-01-17T08:15:20.185Z,2.70
2019-01-17T08:17:46.426Z,2.20
2019-01-17T08:20:15.825Z,2.37
2019-01-17T08:22:41.849Z,2.93
2019-01-17T08:25:09.158Z,2.50
2019-01-17T08:27:35.189Z,2.03
2019-01-17T08:30:01.289Z,1.90
2019-01-17T08:32:27.293Z,2.43
2019-01-17T08:34:53.306Z,2.17
2019-01-17T08:37:19.545Z,1.90
2019-01-17T08:39:45.561Z,1.80
2019-01-17T08:42:11.811Z,1.90
2019-01-17T08:44:37.809Z,1.80
2019-01-17T08:47:04.037Z,2.27
2019-01-17T08:49:30.047Z,1.97
2019-01-17T08:51:56.053Z,1.83
2019-01-17T08:54:22.086Z,2.30
2019-01-17T08:56:48.426Z,1.63
2019-01-17T08:59:14.434Z,1.77
2019-01-17T09:01:40.455Z,1.73
2019-01-17T09:04:06.455Z,1.67
2019-01-17T09:06:32.460Z,1.87
2019-01-17T09:08:58.697Z,2.37
2019-01-17T09:11:24.713Z,1.50
2019-01-17T09:14:10.602Z,1.83
2019-01-17T09:16:36.609Z,1.40
2019-01-17T09:19:02.817Z,1.23
2019-01-17T09:21:29.049Z,1.73
2019-01-17T09:23:55.057Z,1.40
2019-01-17T09:26:21.306Z,1.17
2019-01-17T09:28:47.524Z,0.97
2019-01-17T09:31:13.549Z,1.40
2019-01-17T09:33:39.549Z,1.50
2019-01-17T09:36:05.563Z,1.30
2019-01-17T09:38:31.790Z,1.10
2019-01-17T09:40:58.046Z,0.90
2019-01-17T09:43:24.046Z,1.13
2019-01-17T09:45:50.068Z,1.00
2019-01-17T09:48:16.064Z,1.10
2019-01-17T09:50:42.088Z,0.90
2019-01-17T09:53:08.101Z,0.90
2019-01-17T09:55:34.098Z,1.00
2019-01-17T09:58:00.200Z,1.33
2019-01-17T10:00:27.829Z,1.27
2019-01-17T10:02:53.957Z,1.30
2019-01-17T10:05:20.201Z,1.00
2019-01-17T10:07:46.206Z,0.97
2019-01-17T10:10:15.647Z,1.73
2019-01-17T10:12:41.965Z,1.00
2019-01-17T10:15:17.389Z,1.23
2019-01-17T10:17:47.193Z,2.80
2019-01-17T10:20:25.375Z,1.00
2019-01-17T10:22:55.272Z,1.10
2019-01-17T10:25:34.130Z,1.10
2019-01-17T10:28:16.010Z,1.23
2019-01-17T10:30:52.488Z,1.30
2019-01-17T10:33:25.145Z,0.90
2019-01-17T10:36:26.741Z,0.90
2019-01-17T10:38:56.773Z,1.03
2019-01-17T10:41:35.873Z,0.80
2019-01-17T10:44:05.919Z,0.80
2019-01-17T10:46:56.501Z,1.03
2019-01-17T10:49:38.198Z,0.90
2019-01-17T10:52:23.441Z,0.67
2019-01-17T10:55:02.492Z,0.80
2019-01-17T10:57:41.177Z,0.80
2019-01-17T11:00:23.206Z,0.90
2019-01-17T11:03:01.816Z,0.80
2019-01-17T11:05:55.815Z,0.70
2019-01-17T11:08:45.239Z,0.80
2019-01-17T11:11:29.691Z,1.23
2019-01-17T11:14:11.400Z,0.60
2019-01-17T11:16:52.857Z,0.80
2019-01-17T11:19:28.969Z,0.70
2019-01-17T11:21:58.764Z,0.50
2019-01-17T11:24:28.561Z,0.67
2019-01-17T11:27:04.249Z,0.40
2019-01-17T11:29:51.501Z,0.40
2019-01-17T11:32:30.202Z,0.60
2019-01-17T11:35:00.216Z,0.80
2019-01-17T11:37:47.740Z,0.70
2019-01-17T11:40:26.699Z,0.60
2019-01-17T11:42:56.730Z,1.03
2019-01-17T11:45:29.569Z,0.60
2019-01-17T11:48:05.133Z,0.70
2019-01-17T11:50:51.822Z,0.60
2019-01-17T11:53:51.661Z,0.50
2019-01-17T11:56:27.287Z,0.60
2019-01-17T11:59:12.190Z,0.53
2019-01-17T12:02:11.309Z,0.53
2019-01-17T12:04:37.101Z,0.53
2019-01-17T12:07:13.260Z,0.67
2019-01-17T12:09:39.262Z,0.40
2019-01-17T12:12:05.376Z,0.33
2019-01-17T12:14:31.372Z,0.47
2019-01-17T12:16:57.377Z,0.40
2019-01-17T12:19:23.385Z,0.40
2019-01-17T12:21:49.498Z,0.30
2019-01-17T12:24:15.514Z,0.60
2019-01-17T12:26:47.308Z,0.50
2019-01-17T12:29:09.422Z,0.70
2019-01-17T12:31:35.414Z,0.90
2019-01-17T12:34:01.457Z,0.80
2019-01-17T12:36:27.485Z,0.50
2019-01-17T12:38:53.468Z,0.50
2019-01-17T12:41:19.756Z,0.60
2019-01-17T12:43:45.965Z,0.50
2019-01-17T12:46:11.978Z,0.53
2019-01-17T12:48:38.137Z,0.50
2019-01-17T12:51:04.162Z,0.47
2019-01-17T12:53:30.205Z,0.53
2019-01-17T12:55:56.464Z,0.40
2019-01-17T12:58:22.473Z,0.60
2019-01-17T13:00:48.544Z,0.63
2019-01-17T13:03:14.541Z,0.50
2019-01-17T13:05:40.869Z,0.60
2019-01-17T13:08:06.877Z,0.60
2019-01-17T13:10:32.883Z,0.67
2019-01-17T13:12:58.974Z,0.47
2019-01-17T13:15:24.976Z,0.60
2019-01-17T13:17:51.010Z,0.60
2019-01-17T13:20:17.213Z,0.70
2019-01-17T13:22:43.309Z,1.00
2019-01-17T13:25:12.859Z,0.43
2019-01-17T13:27:39.093Z,0.60
2019-01-17T13:30:12.010Z,0.67
2019-01-17T13:32:38.013Z,0.70
2019-01-17T13:35:04.558Z,0.90
2019-01-17T13:37:30.561Z,0.97
2019-01-17T13:39:56.806Z,0.60
2019-01-17T13:42:23.041Z,0.70
2019-01-17T13:44:49.289Z,0.80
2019-01-17T13:47:15.272Z,0.73
2019-01-17T13:49:41.309Z,0.60
2019-01-17T13:52:07.518Z,1.00
2019-01-17T13:54:33.553Z,0.70
2019-01-17T13:56:59.545Z,0.50
2019-01-17T13:59:25.576Z,0.60
2019-01-17T14:01:51.561Z,0.47
2019-01-17T14:04:17.561Z,0.70
2019-01-17T14:06:43.890Z,0.40
2019-01-17T14:09:09.914Z,0.57
2019-01-17T14:11:35.941Z,1.20
2019-01-17T14:14:02.153Z,0.57
2019-01-17T14:16:28.168Z,0.43
2019-01-17T14:18:54.161Z,0.50
2019-01-17T14:21:25.450Z,0.40
2019-01-17T14:23:48.313Z,0.40
2019-01-17T14:26:14.334Z,0.50
2019-01-17T14:28:41.198Z,0.60
2019-01-17T14:31:07.201Z,0.43
2019-01-17T14:33:33.228Z,0.70
2019-01-17T14:35:59.241Z,0.40
2019-01-17T14:38:25.262Z,0.60
2019-01-17T14:40:51.259Z,0.80
2019-01-17T14:43:17.285Z,0.60
2019-01-17T14:45:43.541Z,0.67
2019-01-17T14:48:09.581Z,0.80
2019-01-17T14:50:35.825Z,0.40
2019-01-17T14:53:01.865Z,0.50
2019-01-17T14:55:27.870Z,0.10
2019-01-17T14:57:54.216Z,0.20
2019-01-17T15:00:29.087Z,0.10
2019-01-17T15:02:55.095Z,0.30
2019-01-17T15:05:21.096Z,0.30
2019-01-17T15:07:47.121Z,0.50
2019-01-17T15:10:22.310Z,0.73
2019-01-17T15:12:48.413Z,0.40
2019-01-17T15:15:14.422Z,0.70
2019-01-17T15:17:40.670Z,0.40
2019-01-17T15:20:09.781Z,0.47
2019-01-17T15:22:35.890Z,0.50
2019-01-17T15:25:02.372Z,0.60
2019-01-17T15:27:28.446Z,0.50
2019-01-17T15:29:54.678Z,0.50
2019-01-17T15:32:21.085Z,0.33
2019-01-17T15:34:47.097Z,0.50
2019-01-17T15:37:13.121Z,0.90
2019-01-17T15:39:39.137Z,0.90
2019-01-17T15:42:05.134Z,0.40
2019-01-17T15:44:31.149Z,0.57
2019-01-17T15:46:57.159Z,0.53
2019-01-17T15:49:23.161Z,0.70
2019-01-17T15:51:49.185Z,0.67
2019-01-17T15:54:15.264Z,0.67
2019-01-17T15:56:41.322Z,0.77
2019-01-17T15:59:07.338Z,0.60
2019-01-17T16:01:33.341Z,0.67
2019-01-17T16:03:59.365Z,0.60
2019-01-17T16:06:25.621Z,0.50
2019-01-17T16:08:51.632Z,0.83
2019-01-17T16:11:17.869Z,0.70
2019-01-17T16:13:43.894Z,0.67
2019-01-17T16:16:09.893Z,0.90
2019-01-17T16:18:35.902Z,1.57
2019-01-17T16:21:01.901Z,0.90
2019-01-17T16:23:28.165Z,0.70
2019-01-17T16:25:54.169Z,0.70
2019-01-17T16:28:20.181Z,0.97
2019-01-17T16:30:46.414Z,1.10
2019-01-17T16:33:12.651Z,1.20
2019-01-17T16:35:38.657Z,1.10
2019-01-17T16:38:04.684Z,1.00
2019-01-17T16:40:30.909Z,1.00
2019-01-17T16:42:56.920Z,0.67
2019-01-17T16:45:23.130Z,0.60
2019-01-17T16:47:49.129Z,0.77
2019-01-17T16:50:17.046Z,0.70
2019-01-17T16:52:43.343Z,0.50
2019-01-17T16:55:09.954Z,0.50
2019-01-17T16:57:35.984Z,0.60
2019-01-17T17:00:05.788Z,0.20
2019-01-17T17:02:32.013Z,0.40
2019-01-17T17:04:58.012Z,0.70
2019-01-17T17:07:27.051Z,0.70
2019-01-17T17:09:53.362Z,0.70
2019-01-17T17:12:19.594Z,0.93
2019-01-17T17:14:45.621Z,0.70
2019-01-17T17:17:11.626Z,0.70
2019-01-17T17:19:37.869Z,1.03
2019-01-17T17:22:03.869Z,0.80
2019-01-17T17:24:30.134Z,1.00
2019-01-17T17:26:56.362Z,0.60
2019-01-17T17:29:22.394Z,0.63
2019-01-17T17:31:48.408Z,0.80
2019-01-17T17:34:14.641Z,0.97
2019-01-17T17:36:40.653Z,1.10
2019-01-17T17:39:06.853Z,0.87
2019-01-17T17:41:32.873Z,0.93
2019-01-17T17:43:58.877Z,1.47
2019-01-17T17:46:25.117Z,1.20
2019-01-17T17:48:51.377Z,1.23
2019-01-17T17:51:17.474Z,1.20
2019-01-17T17:53:43.729Z,1.57
2019-01-17T17:56:09.830Z,1.13
2019-01-17T17:58:36.082Z,1.60
2019-01-17T18:01:03.992Z,1.30
2019-01-17T18:03:29.992Z,1.30
2019-01-17T18:05:56.009Z,1.00
2019-01-17T18:08:22.252Z,1.10
2019-01-17T18:10:48.489Z,1.00
2019-01-17T18:13:14.514Z,1.10
2019-01-17T18:15:40.737Z,1.20
2019-01-17T18:18:06.838Z,0.93
2019-01-17T18:20:32.854Z,1.10
2019-01-17T18:22:58.861Z,1.00
2019-01-17T18:25:24.885Z,1.13
2019-01-17T18:27:50.887Z,1.03
2019-01-17T18:30:25.365Z,1.30
2019-01-17T18:32:51.692Z,0.70
2019-01-17T18:35:17.820Z,1.03
2019-01-17T18:37:44.128Z,1.10
2019-01-17T18:40:12.945Z,1.10
2019-01-17T18:42:38.949Z,1.27
2019-01-17T18:45:08.649Z,0.90
2019-01-17T18:47:35.010Z,1.07
2019-01-17T18:50:01.405Z,1.00
2019-01-17T18:52:27.487Z,0.80
2019-01-17T18:54:53.480Z,1.20
2019-01-17T18:57:19.494Z,0.57
2019-01-17T18:59:45.497Z,0.90
2019-01-17T19:02:11.750Z,0.80
2019-01-17T19:04:38.057Z,1.20
2019-01-17T19:07:04.154Z,0.90
2019-01-17T19:09:30.169Z,0.80
2019-01-17T19:11:56.184Z,1.00
2019-01-17T19:14:22.420Z,1.33
2019-01-17T19:16:48.416Z,1.93
2019-01-17T19:19:14.458Z,1.80
2019-01-17T19:21:40.688Z,1.33
2019-01-17T19:24:06.813Z,1.60
2019-01-17T19:26:32.829Z,1.33
2019-01-17T19:28:59.055Z,1.20
2019-01-17T19:31:25.072Z,1.67
2019-01-17T19:33:51.393Z,1.50
2019-01-17T19:36:17.405Z,1.40
2019-01-17T19:38:43.424Z,1.43
2019-01-17T19:41:09.427Z,1.27
2019-01-17T19:43:35.437Z,2.20
2019-01-17T19:46:01.445Z,1.67
2019-01-17T19:48:27.464Z,1.07
2019-01-17T19:50:53.497Z,1.30
2019-01-17T19:53:19.734Z,1.80
2019-01-17T19:55:45.753Z,1.60
2019-01-17T19:58:11.755Z,1.27
2019-01-17T20:00:37.766Z,1.17
2019-01-17T20:03:04.088Z,1.23
2019-01-17T20:05:31.632Z,1.03
2019-01-17T20:07:57.745Z,1.03
2019-01-17T20:10:29.225Z,1.20
2019-01-17T20:12:55.225Z,1.30
2019-01-17T20:15:21.414Z,1.50
2019-01-17T20:17:47.461Z,1.17
2019-01-17T20:20:15.677Z,1.53
2019-01-17T20:22:41.696Z,1.50
2019-01-17T20:25:08.196Z,1.67
2019-01-17T20:27:34.317Z,1.67
2019-01-17T20:30:00.328Z,1.90
2019-01-17T20:32:26.357Z,1.87
2019-01-17T20:34:52.354Z,1.97
2019-01-17T20:37:18.374Z,1.50
2019-01-17T20:39:44.375Z,1.97
2019-01-17T20:42:11.582Z,1.43
2019-01-17T20:44:37.828Z,1.70
2019-01-17T20:47:03.853Z,1.80
2019-01-17T20:49:29.873Z,1.70
2019-01-17T20:51:55.885Z,1.93
2019-01-17T20:54:21.925Z,1.87
2019-01-17T20:56:47.944Z,2.10
2019-01-17T20:59:13.964Z,1.37
2019-01-17T21:01:58.239Z,1.87
2019-01-17T21:04:24.249Z,1.90
2019-01-17T21:06:50.454Z,2.03
2019-01-17T21:09:16.477Z,1.83
2019-01-17T21:11:42.520Z,1.63
2019-01-17T21:14:08.517Z,1.60
2019-01-17T21:16:34.549Z,2.00
2019-01-17T21:19:00.541Z,1.73
2019-01-17T21:21:26.785Z,1.77
2019-01-17T21:23:52.789Z,1.73
2019-01-17T21:26:19.167Z,1.63
2019-01-17T21:28:49.092Z,1.77
2019-01-17T21:31:13.359Z,1.50
2019-01-17T21:33:39.349Z,1.40
2019-01-17T21:36:05.598Z,2.27
2019-01-17T21:38:31.594Z,1.80
2019-01-17T21:40:57.865Z,1.80
2019-01-17T21:43:23.860Z,1.67
2019-01-17T21:45:49.872Z,1.70
2019-01-17T21:48:15.909Z,1.50
2019-01-17T21:50:42.153Z,2.20
2019-01-17T21:53:08.184Z,2.33
2019-01-17T21:55:34.165Z,1.70
2019-01-17T21:58:00.178Z,1.57
2019-01-17T22:00:29.047Z,1.73
2019-01-17T22:02:55.051Z,1.30
2019-01-17T22:05:21.372Z,1.20
2019-01-17T22:07:47.386Z,1.90
2019-01-17T22:10:14.796Z,1.77
2019-01-17T22:12:41.069Z,1.73
2019-01-17T22:15:10.473Z,1.40
2019-01-17T22:17:36.470Z,1.43
2019-01-17T22:20:05.480Z,1.63
2019-01-17T22:22:31.721Z,1.20
2019-01-17T22:24:57.737Z,1.30
2019-01-17T22:27:23.741Z,1.40
2019-01-17T22:29:49.756Z,1.30
2019-01-17T22:32:16.010Z,1.40
2019-01-17T22:34:42.260Z,1.53
2019-01-17T22:37:08.276Z,1.20
2019-01-17T22:39:34.270Z,1.50
2019-01-17T22:42:00.499Z,2.83
2019-01-17T22:44:26.713Z,1.20
2019-01-17T22:46:52.720Z,1.63
2019-01-17T22:49:18.949Z,1.60
2019-01-17T22:51:44.954Z,1.40
2019-01-17T22:54:10.969Z,1.20
2019-01-17T22:56:36.972Z,1.30
2019-01-17T22:59:09.100Z,1.30
2019-01-17T23:01:31.192Z,1.33
2019-01-17T23:03:57.312Z,1.67
2019-01-17T23:06:23.349Z,1.40
2019-01-17T23:08:49.544Z,1.47
2019-01-17T23:11:15.564Z,1.90
2019-01-17T23:13:41.565Z,1.40
2019-01-17T23:16:07.577Z,1.80
2019-01-17T23:18:33.568Z,1.70
2019-01-17T23:20:59.806Z,1.40
2019-01-17T23:23:26.053Z,1.50
2019-01-17T23:25:52.077Z,1.77
2019-01-17T23:28:18.068Z,1.13
2019-01-17T23:30:44.077Z,1.57
2019-01-17T23:33:10.081Z,1.40
2019-01-17T23:35:36.317Z,2.00
2019-01-17T23:38:02.433Z,1.87
2019-01-17T23:40:28.439Z,1.20
2019-01-17T23:42:54.442Z,1.33
2019-01-17T23:45:20.445Z,1.03
2019-01-17T23:47:46.685Z,1.60
2019-01-17T23:50:12.781Z,1.43
2019-01-17T23:52:39.018Z,1.70
2019-01-17T23:55:05.825Z,1.40
2019-01-17T23:57:31.825Z,1.40
2019-01-17T23:59:58.065Z,1.67
